Time;durP1;ratioP1;P1;durP2;ratioP2;P2;SDS_P1;SDS_P2;PMS_P1;PMS_P2;Temp;Humidity;BMP_temperature;BMP_pressure;BME280_temperature;BME280_humidity;BME280_pressure;Samples;Min_cycle;Max_cycle;Signal;HPM_P1;HPM_P2
2023/03/30 00:02:21;;;;;;;0.10;0.10;;;;;;;15.78;55.17;100544.88;5091404;28;20039;-80
2023/03/30 00:04:50;;;;;;;1.15;0.30;;;;;;;15.93;55.60;100554.88;5088702;28;20029;-78
2023/03/30 00:07:18;;;;;;;0.10;0.10;;;;;;;15.96;55.64;100564.53;5093565;28;20044;-80
2023/03/30 00:09:45;;;;;;;0.00;0.00;;;;;;;15.95;54.65;100560.13;5090375;28;20044;-80
2023/03/30 00:12:12;;;;;;;0.10;0.10;;;;;;;16.08;55.70;100553.28;5089629;28;20024;-78
2023/03/30 00:14:41;;;;;;;0.10;0.10;;;;;;;16.05;54.85;100558.78;5085885;28;20024;-79
2023/03/30 00:17:08;;;;;;;0.10;0.10;;;;;;;16.08;54.71;100553.28;5080898;28;20036;-79
2023/03/30 00:19:36;;;;;;;0.10;0.10;;;;;;;16.11;55.00;100542.44;5080780;28;20025;-80
2023/03/30 00:22:04;;;;;;;0.40;0.40;;;;;;;16.13;55.11;100545.91;5079243;28;20028;-80
2023/03/30 00:24:31;;;;;;;0.40;0.40;;;;;;;16.07;55.42;100556.88;5082939;28;20510;-79
2023/03/30 00:26:57;;;;;;;0.10;0.10;;;;;;;16.07;55.11;100562.22;5083078;28;20033;-80
2023/03/30 00:29:23;;;;;;;0.10;0.10;;;;;;;16.05;55.23;100564.13;5084203;28;20032;-82
2023/03/30 00:31:49;;;;;;;0.32;0.32;;;;;;;16.06;55.73;100560.47;5084768;28;20067;-81
2023/03/30 00:34:15;;;;;;;0.10;0.10;;;;;;;16.03;55.29;100566.00;5081200;28;20039;-79
2023/03/30 00:36:41;;;;;;;0.10;0.10;;;;;;;15.94;54.97;100577.13;5085425;28;20031;-79
2023/03/30 00:39:07;;;;;;;0.10;0.10;;;;;;;15.90;55.47;100565.72;5079289;28;20017;-78
2023/03/30 00:41:37;;;;;;;0.10;0.10;;;;;;;15.92;55.80;100570.97;5088265;28;20044;-78
2023/03/30 00:44:06;;;;;;;0.10;0.10;;;;;;;15.84;55.46;100568.66;5087041;28;20047;-79
2023/03/30 00:46:32;;;;;;;0.10;0.10;;;;;;;15.75;55.70;100556.56;5082434;28;20067;-79
2023/03/30 00:49:04;;;;;;;0.10;0.10;;;;;;;15.71;55.64;100552.28;5086858;28;20025;-79
2023/03/30 00:51:35;;;;;;;0.10;0.10;;;;;;;15.66;56.08;100547.19;5085794;28;20052;-79
2023/03/30 00:54:08;;;;;;;0.10;0.10;;;;;;;15.58;55.67;100541.31;5093809;28;20028;-78
2023/03/30 00:56:34;;;;;;;0.10;0.10;;;;;;;15.54;55.73;100537.06;5086532;28;20017;-77
2023/03/30 00:59:02;;;;;;;0.10;0.10;;;;;;;15.49;55.75;100536.41;5083395;28;20121;-77
2023/03/30 01:01:37;;;;;;;0.10;0.10;;;;;;;15.47;55.82;100547.13;5081559;28;20020;-78
2023/03/30 01:04:04;;;;;;;0.10;0.10;;;;;;;15.39;55.78;100543.97;5088867;28;20032;-78
2023/03/30 01:06:34;;;;;;;0.10;0.10;;;;;;;15.44;55.94;100547.28;5085032;28;20112;-80
2023/03/30 01:09:00;;;;;;;0.22;0.22;;;;;;;15.44;56.14;100541.06;5098732;28;20055;-80
2023/03/30 01:11:27;;;;;;;0.10;0.10;;;;;;;15.38;56.09;100542.22;5088126;28;20428;-81
2023/03/30 01:14:00;;;;;;;0.13;0.13;;;;;;;15.39;56.30;100533.28;5087317;28;20082;-80
2023/03/30 01:20:11;;;;;;;0.10;0.10;;;;;;;15.34;56.48;100535.31;5106930;27;20355;-79
2023/03/30 01:22:57;;;;;;;;;;;;;;;15.38;56.30;100523.53;5094205;28;20028;-79
2023/03/30 01:26:05;;;;;;;0.57;0.57;;;;;;;15.33;56.67;100538.91;5093318;28;19912;-79
2023/03/30 01:34:38;;;;;;;0.10;0.10;;;;;;;15.24;56.64;100501.94;5121548;27;1185058;-78
2023/03/30 01:40:12;;;;;;;0.10;0.10;;;;;;;15.24;56.85;100507.25;5133020;27;20432;-79
2023/03/30 01:45:55;;;;;;;0.05;0.05;;;;;;;15.24;56.71;100497.47;5110347;27;20419;-80
2023/03/30 01:48:45;;;;;;;0.10;0.10;;;;;;;15.22;56.88;100495.81;5113145;28;20095;-79
2023/03/30 01:51:34;;;;;;;0.13;0.13;;;;;;;15.18;57.01;100495.09;5112257;28;20038;-80
2023/03/30 01:54:09;;;;;;;1.52;1.42;;;;;;;15.08;57.18;100485.72;5110458;28;20098;-80
2023/03/30 01:56:46;;;;;;;0.10;0.10;;;;;;;15.02;57.33;100486.88;5103105;28;20036;-80
2023/03/30 01:59:21;;;;;;;0.10;0.10;;;;;;;14.95;57.55;100485.41;5109797;28;20046;-80
2023/03/30 02:01:53;;;;;;;0.10;0.10;;;;;;;14.82;57.83;100490.44;5103877;28;20020;-79
2023/03/30 02:04:22;;;;;;;0.20;0.20;;;;;;;14.82;57.79;100495.78;5109398;28;20431;-79
2023/03/30 02:06:57;;;;;;;0.10;0.10;;;;;;;14.80;57.91;100494.97;5104167;28;20028;-80
2023/03/30 02:09:25;;;;;;;0.10;0.10;;;;;;;14.75;57.95;100505.81;5112205;28;20036;-80
2023/03/30 02:11:52;;;;;;;0.00;0.00;;;;;;;14.72;58.26;100500.63;5105720;28;20027;-81
2023/03/30 02:14:25;;;;;;;0.10;0.10;;;;;;;14.73;58.18;100515.69;5113680;28;20075;-81
2023/03/30 02:16:57;;;;;;;0.20;0.20;;;;;;;14.74;58.39;100508.56;5111482;28;20030;-78
2023/03/30 02:19:23;;;;;;;0.10;0.10;;;;;;;14.72;58.56;100508.63;5113459;28;20091;-78
2023/03/30 02:21:49;;;;;;;0.10;0.10;;;;;;;14.71;59.24;100506.88;5110349;28;20032;-80
2023/03/30 02:24:22;;;;;;;0.10;0.10;;;;;;;14.79;59.26;100507.44;5110994;28;20519;-80
2023/03/30 02:26:50;;;;;;;0.10;0.10;;;;;;;14.82;59.32;100517.09;5104238;28;20038;-80
2023/03/30 02:29:17;;;;;;;0.10;0.10;;;;;;;14.86;59.17;100511.56;5106248;28;20024;-80
2023/03/30 02:31:46;;;;;;;0.80;0.77;;;;;;;14.87;59.24;100502.63;5107914;28;20062;-78
2023/03/30 02:53:41;;;;;;;0.20;0.20;;;;;;;15.11;60.13;100486.47;5117937;27;20366;-79
2023/03/30 02:56:20;;;;;;;2.63;1.50;;;;;;;15.16;59.53;100468.44;5115504;28;20066;-80
2023/03/30 02:59:07;;;;;;;0.10;0.10;;;;;;;15.20;59.39;100464.72;5109235;28;20039;-80
2023/03/30 03:04:11;;;;;;;0.10;0.10;;;;;;;15.01;60.17;100477.16;5100462;27;1875559;-80
2023/03/30 03:06:38;;;;;;;0.10;0.10;;;;;;;15.03;60.04;100483.28;5128898;28;20032;-81
2023/03/30 03:09:04;;;;;;;0.10;0.10;;;;;;;14.95;60.72;100480.09;5125468;28;20032;-80
2023/03/30 03:11:31;;;;;;;0.47;0.47;;;;;;;14.95;60.44;100478.28;5131347;28;20109;-80
2023/03/30 03:13:58;;;;;;;0.10;0.10;;;;;;;14.94;60.42;100484.56;5131209;28;20028;-81
2023/03/30 03:16:24;;;;;;;0.10;0.10;;;;;;;14.98;60.63;100483.50;5128061;28;20020;-79
2023/03/30 03:18:51;;;;;;;0.10;0.10;;;;;;;14.96;61.06;100471.16;5127634;28;20019;-80
2023/03/30 03:21:17;;;;;;;0.10;0.10;;;;;;;14.92;61.68;100474.91;5129481;28;20027;-80
2023/03/30 03:23:47;;;;;;;0.32;0.32;;;;;;;14.99;61.31;100473.66;5122296;28;20028;-79
2023/03/30 03:26:13;;;;;;;0.10;0.10;;;;;;;14.97;61.61;100470.22;5123241;28;20102;-80
2023/03/30 03:28:39;;;;;;;0.10;0.10;;;;;;;14.99;61.72;100465.66;5119764;28;20389;-80
2023/03/30 03:31:05;;;;;;;0.10;0.10;;;;;;;15.00;62.04;100462.06;5124900;28;20016;-80
2023/03/30 03:33:32;;;;;;;0.10;0.10;;;;;;;14.96;61.95;100456.00;5121048;28;20035;-80
2023/03/30 03:35:59;;;;;;;0.10;0.10;;;;;;;14.99;62.59;100460.31;5120880;28;20028;-80
2023/03/30 03:38:26;;;;;;;0.25;0.25;;;;;;;14.96;62.56;100460.47;5123123;28;20132;-80
2023/03/30 03:40:54;;;;;;;0.10;0.10;;;;;;;15.00;62.48;100454.94;5126986;28;20283;-81
2023/03/30 03:43:21;;;;;;;1.30;0.85;;;;;;;14.98;62.85;100453.28;5122852;28;20024;-80
2023/03/30 03:45:49;;;;;;;0.10;0.10;;;;;;;15.15;62.25;100449.84;5118148;28;20028;-80
2023/03/30 03:48:17;;;;;;;0.10;0.10;;;;;;;15.05;62.52;100446.72;5119532;28;20027;-80
2023/03/30 03:50:45;;;;;;;0.10;0.10;;;;;;;15.14;62.35;100448.97;5120238;28;20078;-80
2023/03/30 03:53:12;;;;;;;0.10;0.10;;;;;;;15.23;61.97;100447.69;5129922;28;20050;-77
2023/03/30 03:55:38;;;;;;;0.10;0.10;;;;;;;15.17;62.20;100446.16;5127430;28;20023;-82
2023/03/30 03:58:06;;;;;;;0.20;0.20;;;;;;;15.08;62.35;100489.28;5129536;28;20052;-82
2023/03/30 04:00:33;;;;;;;0.10;0.10;;;;;;;14.97;63.05;100459.56;5128073;28;20038;-79
2023/03/30 04:02:59;;;;;;;0.10;0.10;;;;;;;15.04;62.53;100469.88;5120847;28;20028;-77
2023/03/30 04:05:25;;;;;;;0.03;0.03;;;;;;;15.16;62.30;100457.75;5116171;28;20061;-79
2023/03/30 04:07:55;;;;;;;0.10;0.10;;;;;;;15.25;62.04;100467.16;5126198;28;20099;-80
2023/03/30 04:10:22;;;;;;;0.30;0.30;;;;;;;15.14;62.93;100458.78;5113173;28;20036;-80
2023/03/30 04:12:48;;;;;;;0.10;0.10;;;;;;;15.04;64.60;100463.66;5123542;28;20377;-80
2023/03/30 04:15:14;;;;;;;0.10;0.10;;;;;;;14.78;65.60;100460.38;5105490;28;20035;-80
2023/03/30 04:17:40;;;;;;;0.10;0.10;;;;;;;14.71;66.05;100472.22;5114081;28;20051;-82
2023/03/30 04:20:10;;;;;;;0.22;0.22;;;;;;;14.37;68.10;100469.16;5112329;28;20125;-82
2023/03/30 04:22:40;;;;;;;0.70;0.70;;;;;;;14.37;67.89;100452.31;5103790;28;20032;-80
2023/03/30 04:25:08;;;;;;;0.20;0.20;;;;;;;14.21;68.83;100458.25;5106366;28;20024;-81
2023/03/30 04:27:36;;;;;;;0.10;0.10;;;;;;;14.15;69.43;100469.16;5108455;28;20088;-79
2023/03/30 04:30:04;;;;;;;0.10;0.10;;;;;;;13.95;70.39;100472.66;5112329;28;20031;-81
2023/03/30 04:32:33;;;;;;;0.10;0.10;;;;;;;13.81;70.87;100459.88;5110782;28;20016;-80
2023/03/30 04:35:02;;;;;;;0.10;0.10;;;;;;;13.69;71.10;100473.69;5106535;28;20031;-81
2023/03/30 04:37:29;;;;;;;0.20;0.20;;;;;;;13.67;71.63;100467.53;5110288;28;20038;-81
2023/03/30 04:39:59;;;;;;;0.10;0.10;;;;;;;13.64;71.99;100459.69;5102487;28;20035;-81
2023/03/30 04:42:29;;;;;;;0.10;0.10;;;;;;;13.67;72.21;100472.84;5106162;28;20483;-79
2023/03/30 04:44:56;;;;;;;0.40;0.40;;;;;;;13.56;72.44;100460.84;5099575;28;20439;-80
2023/03/30 04:47:24;;;;;;;0.10;0.10;;;;;;;13.67;71.87;100454.22;5106447;28;20052;-81
2023/03/30 04:49:50;;;;;;;0.10;0.10;;;;;;;13.59;71.84;100450.09;5112942;28;20400;-80
2023/03/30 04:52:16;;;;;;;10.23;1.27;;;;;;;13.52;72.30;100443.28;5108534;28;20449;-80
2023/03/30 04:54:42;;;;;;;0.10;0.10;;;;;;;13.49;71.39;100448.69;5107701;28;20038;-80
2023/03/30 04:57:09;;;;;;;0.10;0.10;;;;;;;13.42;71.48;100447.19;5102045;28;20032;-80
2023/03/30 04:59:35;;;;;;;0.10;0.10;;;;;;;13.52;71.29;100451.25;5110687;28;20403;-79
2023/03/30 05:02:02;;;;;;;1.00;1.00;;;;;;;13.52;70.77;100448.59;5105322;28;20099;-80
2023/03/30 05:04:29;;;;;;;0.10;0.10;;;;;;;13.54;70.45;100443.19;5111635;28;20024;-80
2023/03/30 05:06:56;;;;;;;0.10;0.10;;;;;;;13.36;70.87;100442.94;5104889;28;20016;-80
2023/03/30 05:09:22;;;;;;;0.20;0.20;;;;;;;13.42;70.35;100442.75;5102090;28;20054;-81
2023/03/30 05:11:49;;;;;;;0.20;0.20;;;;;;;13.27;70.70;100438.84;5108747;28;20114;-81
2023/03/30 05:14:15;;;;;;;0.25;0.25;;;;;;;13.27;70.59;100437.97;5111575;28;20038;-81
2023/03/30 05:16:41;;;;;;;0.00;0.00;;;;;;;13.30;70.52;100432.53;5106718;28;20032;-80
2023/03/30 05:19:07;;;;;;;23.85;1.38;;;;;;;13.23;70.54;100442.56;5105212;28;20500;-80
2023/03/30 05:21:34;;;;;;;0.10;0.10;;;;;;;13.15;70.64;100446.44;5105603;28;20047;-79
2023/03/30 05:24:00;;;;;;;0.10;0.10;;;;;;;13.18;69.96;100444.50;5105034;28;20028;-81
2023/03/30 05:26:26;;;;;;;0.10;0.10;;;;;;;13.02;70.51;100448.66;5100842;28;20484;-80
2023/03/30 05:28:53;;;;;;;0.15;0.15;;;;;;;13.00;70.36;100458.50;5114751;28;20151;-81
2023/03/30 05:31:20;;;;;;;0.00;0.00;;;;;;;13.13;70.42;100461.56;5111525;28;20038;-79
2023/03/30 05:33:47;;;;;;;0.10;0.10;;;;;;;13.09;69.98;100461.66;5115473;28;20073;-79
2023/03/30 05:36:13;;;;;;;0.03;0.03;;;;;;;13.11;70.41;100459.81;5109189;28;20030;-79
2023/03/30 05:38:40;;;;;;;0.40;0.40;;;;;;;12.95;70.22;100470.16;5105510;28;20043;-79
2023/03/30 05:41:06;;;;;;;0.10;0.10;;;;;;;12.97;70.27;100456.78;5102441;28;20040;-80
2023/03/30 05:43:33;;;;;;;0.20;0.20;;;;;;;12.92;70.48;100464.97;5102942;28;20039;-81
2023/03/30 05:46:01;;;;;;;0.10;0.10;;;;;;;13.00;70.10;100464.66;5110622;28;20487;-80
2023/03/30 05:48:28;;;;;;;0.65;0.60;;;;;;;13.05;69.99;100462.72;5102642;28;20039;-80
2023/03/30 05:50:54;;;;;;;4.47;1.85;;;;;;;12.99;70.27;100467.41;5103903;28;20531;-77
2023/03/30 05:53:20;;;;;;;0.00;0.00;;;;;;;12.92;70.30;100472.03;5109360;28;20452;-77
2023/03/30 05:55:48;;;;;;;2.55;1.05;;;;;;;12.96;70.08;100468.38;5108488;28;20027;-79
2023/03/30 05:58:15;;;;;;;0.03;0.03;;;;;;;12.88;69.88;100481.91;5104542;28;20032;-79
2023/03/30 06:00:43;;;;;;;0.25;0.25;;;;;;;12.95;69.80;100478.13;5105498;28;20053;-76
2023/03/30 06:03:10;;;;;;;0.10;0.10;;;;;;;12.95;70.06;100496.75;5095883;28;20069;-78
2023/03/30 06:05:38;;;;;;;0.10;0.10;;;;;;;13.09;69.23;100492.72;5113053;28;20527;-80
2023/03/30 06:08:06;;;;;;;0.08;0.08;;;;;;;13.11;69.41;100489.09;5098802;28;20028;-79
2023/03/30 06:10:33;;;;;;;0.10;0.10;;;;;;;13.14;69.46;100493.44;5104538;28;20038;-79
2023/03/30 06:13:00;;;;;;;0.10;0.10;;;;;;;13.21;68.92;100497.59;5105057;28;20046;-80
2023/03/30 06:15:27;;;;;;;0.32;0.32;;;;;;;13.30;68.62;100491.06;5117752;28;20031;-81
2023/03/30 06:17:53;;;;;;;0.10;0.10;;;;;;;13.17;68.79;100506.63;5115306;28;20035;-80
2023/03/30 06:20:23;;;;;;;0.10;0.10;;;;;;;13.21;68.57;100486.97;5113983;28;20392;-81
2023/03/30 06:22:50;;;;;;;4.28;1.00;;;;;;;13.22;67.98;100509.97;5119320;28;20032;-80
2023/03/30 06:25:19;;;;;;;3.72;2.70;;;;;;;13.20;68.34;100510.97;5116688;28;20039;-81
2023/03/30 06:27:46;;;;;;;0.10;0.10;;;;;;;13.42;67.60;100495.09;5104723;28;20016;-80
2023/03/30 06:30:14;;;;;;;1.20;1.20;;;;;;;13.43;67.66;100513.69;5117308;28;20024;-81
2023/03/30 06:32:40;;;;;;;0.10;0.10;;;;;;;13.39;67.23;100506.72;5113417;28;20079;-80
2023/03/30 06:35:06;;;;;;;10.05;2.30;;;;;;;13.40;67.33;100519.09;5116564;28;20043;-81
2023/03/30 06:37:35;;;;;;;0.10;0.10;;;;;;;13.36;67.61;100516.59;5115028;28;20102;-79
2023/03/30 06:40:12;;;;;;;0.60;0.60;;;;;;;13.39;67.72;100514.69;5113592;28;20518;-79
2023/03/30 06:42:39;;;;;;;0.10;0.10;;;;;;;13.44;67.17;100530.50;5111498;28;20024;-80
2023/03/30 06:45:05;;;;;;;9.10;2.28;;;;;;;13.44;67.23;100541.16;5115328;28;20164;-80
2023/03/30 06:47:31;;;;;;;0.10;0.10;;;;;;;13.44;67.15;100525.19;5111231;28;20030;-79
2023/03/30 06:49:57;;;;;;;0.10;0.10;;;;;;;13.58;66.92;100530.88;5114026;28;20059;-80
2023/03/30 06:52:23;;;;;;;0.15;0.15;;;;;;;13.50;66.70;100530.28;5111470;28;20374;-76
2023/03/30 06:54:50;;;;;;;0.40;0.40;;;;;;;13.46;66.66;100541.09;5113948;28;20445;-80
2023/03/30 06:57:16;;;;;;;0.90;0.90;;;;;;;13.45;66.71;100537.56;5101168;28;20396;-79
2023/03/30 06:59:42;;;;;;;0.10;0.10;;;;;;;13.48;67.02;100537.44;5115457;28;20055;-80
2023/03/30 07:02:12;;;;;;;3.03;1.55;;;;;;;13.50;67.37;100534.75;5094068;28;20024;-84
2023/03/30 07:04:39;;;;;;;0.10;0.10;;;;;;;13.46;67.49;100546.41;5112896;28;20037;-79
2023/03/30 07:07:05;;;;;;;0.13;0.13;;;;;;;13.40;67.23;100550.19;5109212;28;20023;-82
2023/03/30 07:09:31;;;;;;;0.10;0.10;;;;;;;13.41;66.97;100552.78;5115191;28;20059;-79
2023/03/30 07:11:57;;;;;;;0.10;0.10;;;;;;;13.50;67.09;100556.91;5107579;28;20036;-79
2023/03/30 07:14:23;;;;;;;0.10;0.10;;;;;;;13.50;67.13;100567.53;5102677;28;20043;-80
2023/03/30 07:16:50;;;;;;;0.10;0.10;;;;;;;13.49;67.20;100556.97;5120159;28;20784;-79
2023/03/30 07:19:16;;;;;;;0.05;0.05;;;;;;;13.62;67.22;100552.03;5102541;28;20020;-79
2023/03/30 07:21:42;;;;;;;0.85;0.85;;;;;;;13.58;66.70;100559.25;5110759;28;20035;-77
2023/03/30 07:24:08;;;;;;;6.93;1.65;;;;;;;13.60;66.86;100554.75;5118065;28;20481;-78
2023/03/30 07:26:34;;;;;;;1.85;1.65;;;;;;;13.69;66.83;100551.75;5103157;28;20035;-79
2023/03/30 07:29:01;;;;;;;0.00;0.00;;;;;;;13.82;66.42;100577.91;5108893;28;20477;-79
2023/03/30 07:31:27;;;;;;;0.30;0.30;;;;;;;13.86;66.01;100563.56;5115525;28;20055;-80
2023/03/30 07:33:53;;;;;;;0.10;0.10;;;;;;;13.98;65.71;100552.44;5100145;28;20027;-80
2023/03/30 07:36:19;;;;;;;0.10;0.10;;;;;;;13.98;66.02;100578.19;5113654;28;20689;-79
2023/03/30 07:38:46;;;;;;;0.08;0.08;;;;;;;13.93;65.60;100569.53;5109263;28;20629;-80
2023/03/30 07:41:15;;;;;;;0.17;0.17;;;;;;;14.00;65.91;100571.03;5107427;28;20043;-78
2023/03/30 07:43:41;;;;;;;1.52;1.42;;;;;;;14.03;65.71;100574.44;5105110;28;20031;-79
2023/03/30 07:46:10;;;;;;;0.10;0.10;;;;;;;14.18;65.51;100564.97;5113040;28;20035;-79
2023/03/30 07:48:37;;;;;;;0.20;0.20;;;;;;;14.20;65.62;100573.75;5104804;28;20549;-79
2023/03/30 07:51:06;;;;;;;0.10;0.10;;;;;;;14.26;65.44;100579.81;5113841;28;20084;-79
2023/03/30 07:53:32;;;;;;;3.03;1.38;;;;;;;14.21;65.32;100593.31;5110445;28;20035;-79
2023/03/30 07:55:59;;;;;;;1.20;1.15;;;;;;;14.21;65.18;100588.81;5107265;28;20027;-80
2023/03/30 07:58:26;;;;;;;0.30;0.30;;;;;;;14.26;65.07;100595.78;5110855;28;20034;-79
2023/03/30 08:00:52;;;;;;;3.08;2.80;;;;;;;14.33;64.94;100595.47;5116848;28;20365;-78
2023/03/30 08:03:20;;;;;;;1.45;1.45;;;;;;;14.26;64.83;100601.97;5111121;28;20042;-79
2023/03/30 08:05:58;;;;;;;4.70;1.13;;;;;;;14.34;65.00;100596.34;5108168;28;20393;-79
2023/03/30 08:08:24;;;;;;;0.30;0.30;;;;;;;14.23;65.04;100610.97;5102215;28;20055;-79
2023/03/30 08:10:51;;;;;;;0.00;0.00;;;;;;;14.22;65.09;100592.38;5112888;28;20031;-79
2023/03/30 08:13:17;;;;;;;0.00;0.00;;;;;;;14.31;65.10;100586.66;5111045;28;20019;-80
2023/03/30 08:15:43;;;;;;;0.08;0.08;;;;;;;14.34;64.71;100604.34;5103904;28;20031;-79
2023/03/30 08:18:11;;;;;;;0.40;0.40;;;;;;;14.50;64.59;100623.25;5114393;28;20038;-80
2023/03/30 08:20:39;;;;;;;0.10;0.10;;;;;;;14.51;64.65;100601.84;5104989;28;20085;-78
2023/03/30 08:23:05;;;;;;;0.10;0.10;;;;;;;14.57;64.87;100598.94;5114283;28;20552;-79
2023/03/30 08:25:32;;;;;;;0.43;0.43;;;;;;;14.52;64.56;100611.59;5114997;28;20042;-78
2023/03/30 08:27:58;;;;;;;1.33;0.35;;;;;;;14.63;64.12;100620.94;5102620;28;20039;-79
2023/03/30 08:30:24;;;;;;;0.28;0.28;;;;;;;14.66;64.29;100607.53;5116409;28;20031;-79
2023/03/30 08:32:52;;;;;;;0.10;0.10;;;;;;;14.70;64.52;100619.81;5116038;28;20022;-79
2023/03/30 08:35:20;;;;;;;0.10;0.10;;;;;;;14.75;64.39;100617.81;5116396;28;20028;-80
2023/03/30 08:37:46;;;;;;;5.38;1.00;;;;;;;14.60;64.18;100607.75;5115100;28;20028;-80
2023/03/30 08:40:14;;;;;;;0.10;0.10;;;;;;;14.66;64.21;100610.22;5113816;28;20034;-80
2023/03/30 08:42:57;;;;;;;0.03;0.03;;;;;;;14.77;64.28;100599.97;5101982;28;20024;-79
2023/03/30 08:45:24;;;;;;;0.35;0.35;;;;;;;14.57;64.34;100601.63;5102311;28;20123;-79
2023/03/30 08:47:52;;;;;;;0.10;0.10;;;;;;;14.64;64.23;100609.38;5109523;28;20027;-79
2023/03/30 08:50:30;;;;;;;0.25;0.25;;;;;;;14.76;64.11;100602.72;5101186;28;20027;-80
2023/03/30 08:52:57;;;;;;;0.10;0.10;;;;;;;14.74;64.07;100615.22;5114889;28;20049;-80
2023/03/30 08:55:31;;;;;;;0.10;0.10;;;;;;;14.75;64.19;100625.81;5114097;28;20066;-79
2023/03/30 08:58:38;;;;;;;2.65;2.05;;;;;;;14.80;63.21;100609.63;5108066;28;20465;-80
2023/03/30 09:06:58;;;;;;;0.10;0.10;;;;;;;14.92;63.05;100613.63;5107473;27;20347;-80
2023/03/30 09:09:26;;;;;;;;;;;;;;;15.24;61.98;100625.59;5091781;28;20031;-79
2023/03/30 09:12:04;;;;;;;0.10;0.10;;;;;;;15.13;61.54;100631.38;5088072;28;19943;-80
2023/03/30 09:14:38;;;;;;;0.10;0.10;;;;;;;15.24;61.62;100635.38;5089275;28;20042;-79
2023/03/30 09:19:57;;;;;;;0.10;0.10;;;;;;;15.32;60.11;100654.59;5052464;28;20427;-78
2023/03/30 09:22:33;;;;;;;7.93;3.13;;;;;;;15.34;59.19;100650.09;5047546;28;20059;-78
2023/03/30 09:25:00;;;;;;;0.13;0.13;;;;;;;15.26;59.59;100662.88;5049939;28;20086;-80
2023/03/30 09:27:54;;;;;;;7.03;1.33;;;;;;;15.44;59.68;100648.75;5047873;28;20040;-79
2023/03/30 09:30:25;;;;;;;2.05;1.48;;;;;;;15.31;58.97;100669.72;5049095;28;20048;-80
2023/03/30 09:33:09;;;;;;;0.10;0.10;;;;;;;15.33;59.12;100662.53;5049653;28;20037;-80
2023/03/30 09:35:40;;;;;;;0.10;0.10;;;;;;;15.39;58.91;100661.44;5048171;28;20041;-80
2023/03/30 09:38:13;;;;;;;0.40;0.40;;;;;;;15.44;58.85;100648.75;5047932;28;20413;-80
2023/03/30 09:46:08;;;;;;;0.20;0.20;;;;;;;15.50;58.64;100668.94;5065279;28;20409;-79
2023/03/30 09:48:44;;;;;;;2.92;1.67;;;;;;;15.59;58.31;100668.56;5050586;28;20032;-79
2023/03/30 09:51:15;;;;;;;0.20;0.20;;;;;;;15.71;57.77;100667.13;5044643;28;20115;-79
2023/03/30 09:53:44;;;;;;;0.20;0.20;;;;;;;15.68;57.73;100683.31;5048082;28;20083;-80
2023/03/30 09:56:21;;;;;;;0.10;0.10;;;;;;;15.79;57.26;100675.69;5049336;28;20474;-79
2023/03/30 09:58:47;;;;;;;0.47;0.47;;;;;;;15.80;57.53;100677.44;5046655;28;20031;-80
2023/03/30 10:01:17;;;;;;;3.33;2.38;;;;;;;15.81;57.41;100684.53;5039976;28;20030;-79
2023/03/30 10:03:55;;;;;;;0.10;0.10;;;;;;;15.94;57.24;100684.00;5047958;28;20055;-80
2023/03/30 10:06:22;;;;;;;0.10;0.10;;;;;;;15.90;56.84;100672.59;5049031;28;20120;-78
2023/03/30 10:11:48;;;;;;;0.38;0.38;;;;;;;16.12;56.69;100683.13;5104161;27;20383;-79
2023/03/30 10:14:34;;;;;;;4.22;1.70;;;;;;;16.18;56.79;100695.38;5097098;28;20501;-80
2023/03/30 10:17:02;;;;;;;0.13;0.13;;;;;;;16.34;56.29;100683.03;5105077;28;20024;-79
2023/03/30 10:19:29;;;;;;;0.35;0.35;;;;;;;16.40;55.53;100684.56;5092095;28;20074;-81
2023/03/30 10:21:57;;;;;;;2.20;1.35;;;;;;;16.55;55.67;100695.44;5090740;28;20031;-79
2023/03/30 10:24:27;;;;;;;0.10;0.10;;;;;;;16.36;55.42;100716.84;5092217;28;20028;-79
2023/03/30 10:26:57;;;;;;;0.10;0.10;;;;;;;16.46;55.54;100683.38;5090869;28;20050;-78
2023/03/30 10:29:26;;;;;;;0.10;0.10;;;;;;;16.40;55.13;100703.28;5107427;28;20020;-79
2023/03/30 10:31:58;;;;;;;0.52;0.52;;;;;;;16.36;55.22;100690.97;5093606;28;20458;-79
2023/03/30 10:34:43;;;;;;;0.17;0.17;;;;;;;16.32;55.24;100694.72;5091632;28;20099;-80
2023/03/30 10:37:15;;;;;;;0.63;0.63;;;;;;;16.09;55.38;100699.34;5093010;28;20032;-80
2023/03/30 10:39:45;;;;;;;3.00;1.80;;;;;;;16.01;55.14;100706.81;5094021;28;20028;-78
2023/03/30 10:42:18;;;;;;;0.10;0.10;;;;;;;16.06;55.38;100694.09;5101044;28;20274;-79
2023/03/30 10:44:50;;;;;;;0.50;0.50;;;;;;;16.08;55.64;100694.91;5113001;28;20020;-80
2023/03/30 10:56:02;;;;;;;0.10;0.10;;;;;;;16.58;55.69;100696.16;5107182;27;1167659;-80
2023/03/30 11:01:37;;;;;;;0.20;0.20;;;;;;;16.63;54.46;100706.66;5067355;28;20392;-79
2023/03/30 11:04:11;;;;;;;0.10;0.10;;;;;;;16.54;54.44;100721.34;5051794;28;20379;-80
2023/03/30 11:06:41;;;;;;;0.20;0.20;;;;;;;16.61;53.92;100711.19;5043501;28;20055;-80
2023/03/30 11:09:19;;;;;;;0.10;0.10;;;;;;;16.64;54.38;100705.72;5049190;28;20024;-80
2023/03/30 11:11:53;;;;;;;1.15;1.15;;;;;;;16.42;54.58;100754.84;5045954;28;20029;-79
2023/03/30 11:14:29;;;;;;;0.10;0.10;;;;;;;16.37;54.92;100719.44;5052989;28;20116;-79
2023/03/30 11:17:07;;;;;;;0.10;0.10;;;;;;;16.32;54.68;100749.09;5051962;28;20040;-77
2023/03/30 11:19:53;;;;;;;0.20;0.20;;;;;;;16.37;54.56;100724.78;5051626;28;20497;-80
2023/03/30 11:25:15;;;;;;;0.63;0.63;;;;;;;16.10;55.09;100751.84;5102367;27;1172749;-78
2023/03/30 11:27:51;;;;;;;0.85;0.85;;;;;;;16.35;55.17;100707.97;5129963;27;20104;-78
2023/03/30 11:30:29;;;;;;;0.10;0.10;;;;;;;16.01;55.98;100739.75;5109561;28;20603;-79
2023/03/30 11:33:05;;;;;;;1.08;1.08;;;;;;;16.23;55.84;100732.59;5107960;28;20096;-79
2023/03/30 11:35:45;;;;;;;0.20;0.20;;;;;;;16.09;55.71;100731.41;5116956;28;20028;-81
2023/03/30 11:38:19;;;;;;;0.10;0.10;;;;;;;16.10;55.88;100726.91;5114581;28;20047;-79
2023/03/30 11:43:22;;;;;;;0.10;0.10;;;;;;;16.10;56.75;100726.91;5060735;27;1993909;-79
2023/03/30 11:46:14;;;;;;;0.82;0.80;;;;;;;16.12;56.01;100733.06;5141574;27;20027;-80
2023/03/30 11:48:56;;;;;;;0.10;0.10;;;;;;;16.11;56.16;100737.56;5134517;27;20035;-78
2023/03/30 11:52:04;;;;;;;0.10;0.10;;;;;;;16.06;57.35;100734.19;5137869;28;20016;-79
2023/03/30 11:57:46;;;;;;;0.47;0.47;;;;;;;16.03;58.47;100731.69;5105324;27;20710;-80
2023/03/30 12:05:55;;;;;;;1.08;1.02;;;;;;;15.99;59.30;100763.00;5149725;27;20889;-79
2023/03/30 12:14:41;;;;;;;0.00;0.00;;;;;;;15.84;58.74;100764.53;5132182;27;20916;-80
2023/03/30 12:22:57;;;;;;;0.10;0.10;;;;;;;15.40;62.31;100761.91;5114478;27;1161978;-80
2023/03/30 12:28:12;;;;;;;0.10;0.10;;;;;;;15.52;61.67;100788.09;5144078;27;20390;-79
2023/03/30 12:30:47;;;;;;;0.38;0.38;;;;;;;15.39;62.38;100767.31;5125836;27;20054;-80
2023/03/30 12:35:58;;;;;;;0.20;0.20;;;;;;;15.44;62.26;100763.53;5115780;27;1195444;-77
2023/03/30 12:38:36;;;;;;;0.55;0.55;;;;;;;15.42;63.16;100772.56;5122622;27;20449;-79
2023/03/30 12:41:17;;;;;;;2.38;0.47;;;;;;;15.32;63.02;100767.56;5103438;28;20024;-78
2023/03/30 12:44:01;;;;;;;0.10;0.10;;;;;;;15.36;63.41;100754.97;5107121;28;20504;-79
2023/03/30 12:46:40;;;;;;;0.10;0.10;;;;;;;15.31;64.09;100755.16;5106671;28;20489;-80
2023/03/30 12:49:24;;;;;;;0.30;0.30;;;;;;;15.35;63.71;100761.25;5112355;28;20460;-79
2023/03/30 12:57:23;;;;;;;5.00;0.85;;;;;;;15.38;63.03;100753.13;5095394;27;20134;-78
2023/03/30 13:00:14;;;;;;;0.10;0.10;;;;;;;15.58;63.34;100730.06;5073485;28;20032;-78
2023/03/30 13:05:41;;;;;;;0.30;0.30;;;;;;;15.83;60.93;100728.06;5126526;27;20384;-80
2023/03/30 13:08:18;;;;;;;5.70;0.95;;;;;;;15.91;60.44;100727.72;5111693;28;20032;-79
2023/03/30 13:10:44;;;;;;;1.38;1.20;;;;;;;16.06;60.90;100725.31;5108918;28;20052;-79
2023/03/30 13:13:31;;;;;;;0.20;0.20;;;;;;;16.15;60.57;100719.59;5107550;28;20034;-79
2023/03/30 13:15:57;;;;;;;1.27;1.27;;;;;;;15.97;59.72;100748.84;5111704;28;20058;-77
2023/03/30 13:18:34;;;;;;;10.98;2.95;;;;;;;16.07;59.13;100738.59;5100569;28;20032;-78
2023/03/30 13:21:15;;;;;;;0.10;0.10;;;;;;;16.25;58.34;100715.53;5099163;28;20028;-80
2023/03/30 13:23:56;;;;;;;0.10;0.10;;;;;;;16.40;57.67;100730.00;5097357;28;20020;-79
2023/03/30 13:26:26;;;;;;;0.10;0.10;;;;;;;16.56;56.90;100713.22;5098474;28;20039;-80